Time;durP1;ratioP1;P1;durP2;ratioP2;P2;SDS_P1;SDS_P2;PMS_P1;PMS_P2;Temp;Humidity;BMP_temperature;BMP_pressure;BME280_temperature;BME280_humidity;BME280_pressure;Samples;Min_cycle;Max_cycle;Signal;HPM_P1;HPM_P2
2023/12/12 00:00:44;;;;;;;7.67;3.50;;;;;9.10;100227.00;;;;5036538;28;20302;-69
2023/12/12 00:03:30;;;;;;;6.87;3.83;;;;;9.10;100227.00;;;;5041115;28;20789;-72
2023/12/12 00:06:19;;;;;;;6.30;3.13;;;;;9.10;100232.00;;;;5042464;28;20236;-72
2023/12/12 00:09:06;;;;;;;6.70;3.33;;;;;9.10;100224.00;;;;5039601;28;20310;-72
2023/12/12 00:11:54;;;;;;;6.10;3.60;;;;;9.10;100225.00;;;;5044215;28;20271;-72
2023/12/12 00:14:40;;;;;;;6.33;3.33;;;;;9.10;100231.00;;;;5041562;28;20302;-70
2023/12/12 00:17:27;;;;;;;13.67;4.13;;;;;9.10;100227.00;;;;5042916;28;20239;-70
2023/12/12 00:20:14;;;;;;;8.53;3.53;;;;;9.00;100229.00;;;;5044135;28;20302;-70
2023/12/12 00:23:00;;;;;;;8.90;3.67;;;;;9.00;100233.00;;;;5044521;28;20240;-68
2023/12/12 00:25:47;;;;;;;6.13;3.43;;;;;9.00;100226.00;;;;5036410;28;20244;-71
2023/12/12 00:28:34;;;;;;;7.30;3.67;;;;;9.00;100225.00;;;;5042200;28;20701;-70
2023/12/12 00:31:21;;;;;;;6.20;3.67;;;;;9.00;100230.00;;;;5043720;28;20228;-69
2023/12/12 00:34:07;;;;;;;7.87;4.00;;;;;9.00;100230.00;;;;5038646;28;20398;-71
2023/12/12 00:36:53;;;;;;;7.90;3.67;;;;;9.00;100238.00;;;;5043860;28;20228;-72
2023/12/12 00:39:40;;;;;;;6.50;3.67;;;;;9.00;100224.00;;;;5042949;28;20331;-72
2023/12/12 00:42:26;;;;;;;5.27;3.47;;;;;9.00;100220.00;;;;5047489;28;20267;-68
2023/12/12 00:45:14;;;;;;;10.43;4.40;;;;;8.90;100223.00;;;;5046395;28;20305;-72
2023/12/12 00:48:00;;;;;;;6.17;4.20;;;;;9.00;100226.00;;;;5044421;28;20247;-72
2023/12/12 00:50:48;;;;;;;9.13;4.23;;;;;9.00;100226.00;;;;5025368;28;20818;-71
2023/12/12 00:53:34;;;;;;;11.10;4.50;;;;;9.00;100233.00;;;;5041382;28;20250;-73
2023/12/12 00:56:21;;;;;;;7.40;4.07;;;;;9.00;100226.00;;;;5044149;28;20240;-72
2023/12/12 00:59:07;;;;;;;12.00;3.87;;;;;8.90;100222.00;;;;5045788;28;20223;-71
2023/12/12 01:01:55;;;;;;;7.23;3.70;;;;;8.90;100225.00;;;;5045044;28;20364;-71
2023/12/12 01:04:41;;;;;;;10.40;3.93;;;;;8.90;100229.00;;;;5045659;28;20608;-71
2023/12/12 01:07:28;;;;;;;7.90;4.33;;;;;8.90;100227.00;;;;5045788;28;20231;-71
2023/12/12 01:10:14;;;;;;;9.67;3.90;;;;;8.90;100230.00;;;;5043507;28;20601;-73
2023/12/12 01:13:03;;;;;;;9.73;4.77;;;;;8.90;100226.00;;;;5041107;28;20760;-71
2023/12/12 01:15:50;;;;;;;13.30;4.30;;;;;8.80;100229.00;;;;5044616;28;20224;-71
2023/12/12 01:18:38;;;;;;;8.47;4.20;;;;;8.80;100222.00;;;;5046732;28;20231;-68
2023/12/12 01:21:24;;;;;;;5.20;4.07;;;;;8.80;100226.00;;;;5046908;28;20788;-73
2023/12/12 01:24:10;;;;;;;8.60;3.97;;;;;8.80;100225.00;;;;5043641;28;20258;-73
2023/12/12 01:26:57;;;;;;;9.27;4.20;;;;;8.80;100228.00;;;;5047550;28;20744;-71
2023/12/12 01:29:43;;;;;;;8.67;4.03;;;;;8.80;100229.00;;;;5038011;28;20309;-72
2023/12/12 01:32:29;;;;;;;5.13;3.57;;;;;8.70;100222.00;;;;5015586;28;20255;-71
2023/12/12 01:35:17;;;;;;;9.37;5.20;;;;;8.80;100230.00;;;;5043936;28;20309;-73
2023/12/12 01:38:03;;;;;;;8.13;4.33;;;;;8.80;100221.00;;;;5042843;28;20260;-71
2023/12/12 01:40:49;;;;;;;12.07;3.87;;;;;8.70;100232.00;;;;5050175;28;20239;-71
2023/12/12 01:43:36;;;;;;;12.10;4.70;;;;;8.70;100235.00;;;;5046920;28;20284;-72
2023/12/12 01:46:22;;;;;;;12.93;4.27;;;;;8.70;100230.00;;;;5043784;28;20227;-68
2023/12/12 01:49:09;;;;;;;13.27;4.30;;;;;8.70;100229.00;;;;5044575;28;20239;-73
2023/12/12 01:51:57;;;;;;;7.73;3.97;;;;;8.70;100221.00;;;;5043018;28;20280;-72
2023/12/12 01:54:47;;;;;;;9.20;4.27;;;;;8.70;100236.00;;;;5045378;28;20252;-73
2023/12/12 01:57:33;;;;;;;7.30;3.97;;;;;8.70;100237.00;;;;5042646;28;20763;-71
2023/12/12 02:00:20;;;;;;;10.43;3.53;;;;;8.60;100231.00;;;;5041997;28;20268;-72
2023/12/12 02:03:06;;;;;;;8.13;3.93;;;;;8.60;100229.00;;;;5044665;28;20228;-72
2023/12/12 02:05:57;;;;;;;9.83;4.13;;;;;8.60;100220.00;;;;5044704;28;20252;-73
2023/12/12 02:08:45;;;;;;;9.23;3.90;;;;;8.60;100215.00;;;;5041176;28;20872;-71
2023/12/12 02:11:31;;;;;;;5.83;3.90;;;;;8.60;100218.00;;;;5040184;28;20638;-72
2023/12/12 02:14:17;;;;;;;12.90;4.70;;;;;8.60;100227.00;;;;5047669;28;20243;-73
2023/12/12 02:17:05;;;;;;;5.17;3.60;;;;;8.50;100222.00;;;;5044827;28;20239;-72
2023/12/12 02:19:52;;;;;;;8.60;4.20;;;;;8.50;100220.00;;;;5037303;28;21076;-71
2023/12/12 02:22:39;;;;;;;7.07;4.00;;;;;8.50;100224.00;;;;5045800;28;20324;-70
2023/12/12 02:25:26;;;;;;;6.87;3.47;;;;;8.40;100223.00;;;;5039520;28;20855;-72
2023/12/12 02:28:13;;;;;;;8.53;4.27;;;;;8.40;100214.00;;;;5040206;28;20227;-72
2023/12/12 02:31:01;;;;;;;5.13;3.40;;;;;8.40;100218.00;;;;5041828;28;20752;-71
2023/12/12 02:33:47;;;;;;;6.33;3.93;;;;;8.30;100215.00;;;;5036751;28;20306;-73
2023/12/12 02:36:34;;;;;;;6.07;3.07;;;;;8.40;100208.00;;;;5043570;28;20607;-72
2023/12/12 02:39:22;;;;;;;5.83;3.50;;;;;8.30;100207.00;;;;5044737;28;20363;-70
2023/12/12 02:42:08;;;;;;;4.77;3.20;;;;;8.30;100212.00;;;;5044312;28;20352;-73
2023/12/12 02:44:56;;;;;;;6.20;3.23;;;;;8.20;100209.00;;;;5046485;28;20230;-71
2023/12/12 02:47:43;;;;;;;5.83;3.33;;;;;8.20;100205.00;;;;5044976;28;20235;-71
2023/12/12 02:50:29;;;;;;;4.77;3.10;;;;;8.10;100210.00;;;;5044995;28;20237;-71
2023/12/12 02:53:15;;;;;;;8.70;3.33;;;;;8.20;100211.00;;;;5045931;28;20234;-72
2023/12/12 02:56:03;;;;;;;6.77;3.40;;;;;8.10;100205.00;;;;5035657;28;20235;-72
2023/12/12 02:58:50;;;;;;;6.37;3.43;;;;;8.10;100203.00;;;;5046091;28;20244;-70
2023/12/12 03:01:36;;;;;;;6.50;2.83;;;;;8.10;100198.00;;;;5041958;28;20335;-71
2023/12/12 03:04:22;;;;;;;8.90;2.90;;;;;8.00;100203.00;;;;5046015;28;20357;-70
2023/12/12 03:07:09;;;;;;;7.87;2.70;;;;;8.00;100207.00;;;;5030742;28;20248;-72
2023/12/12 03:09:55;;;;;;;4.17;2.50;;;;;7.90;100204.00;;;;5040719;28;20250;-72
2023/12/12 03:12:43;;;;;;;9.20;2.87;;;;;8.00;100201.00;;;;5044612;28;20316;-74
2023/12/12 03:15:29;;;;;;;8.30;3.50;;;;;8.00;100203.00;;;;5041940;28;20733;-73
2023/12/12 03:18:16;;;;;;;5.63;3.03;;;;;7.90;100210.00;;;;5038242;28;20235;-71
2023/12/12 03:21:02;;;;;;;5.67;2.90;;;;;7.90;100209.00;;;;5044847;28;20226;-70
2023/12/12 03:23:48;;;;;;;4.20;2.33;;;;;7.80;100209.00;;;;5044034;28;20240;-72
2023/12/12 03:26:35;;;;;;;4.60;3.00;;;;;7.80;100210.00;;;;5036645;28;20891;-72
2023/12/12 03:29:23;;;;;;;6.33;2.40;;;;;7.70;100214.00;;;;5038638;28;20254;-72
2023/12/12 03:32:09;;;;;;;3.63;2.80;;;;;7.70;100214.00;;;;5037679;28;20283;-73
2023/12/12 03:34:56;;;;;;;3.97;2.67;;;;;7.70;100212.00;;;;5042271;28;20307;-72
2023/12/12 03:37:44;;;;;;;4.33;2.90;;;;;7.60;100206.00;;;;5041625;28;20621;-68
2023/12/12 03:40:30;;;;;;;6.00;3.30;;;;;7.60;100207.00;;;;5044113;28;20304;-69
2023/12/12 03:43:17;;;;;;;3.40;2.60;;;;;7.60;100206.00;;;;5040111;28;20352;-72
2023/12/12 03:46:05;;;;;;;4.93;3.23;;;;;7.60;100198.00;;;;5044762;28;20237;-71
2023/12/12 03:48:51;;;;;;;5.87;2.63;;;;;7.50;100211.00;;;;5044801;28;20226;-71
2023/12/12 03:51:38;;;;;;;3.57;2.30;;;;;7.50;100199.00;;;;5042510;28;20234;-74
2023/12/12 03:54:25;;;;;;;4.03;2.97;;;;;7.40;100199.00;;;;5037842;28;20619;-71
2023/12/12 03:57:12;;;;;;;3.87;2.60;;;;;7.30;100200.00;;;;5043006;28;20249;-72
2023/12/12 03:59:58;;;;;;;7.40;2.80;;;;;7.20;100195.00;;;;5042591;28;20367;-71
2023/12/12 04:02:46;;;;;;;4.83;2.13;;;;;7.20;100191.00;;;;5037844;28;20267;-72
2023/12/12 04:05:32;;;;;;;9.63;2.10;;;;;7.20;100194.00;;;;5044078;28;20229;-71
2023/12/12 04:08:19;;;;;;;3.47;2.60;;;;;7.00;100183.00;;;;5037531;28;20278;-73
2023/12/12 04:11:05;;;;;;;6.27;2.87;;;;;7.00;100186.00;;;;5042844;28;20228;-71
2023/12/12 04:13:52;;;;;;;5.07;2.97;;;;;6.90;100172.00;;;;5038220;28;20240;-72
2023/12/12 04:16:39;;;;;;;4.13;2.40;;;;;6.90;100173.00;;;;5044681;28;20242;-71
2023/12/12 04:19:27;;;;;;;4.17;2.30;;;;;6.90;100171.00;;;;5035519;28;20241;-71
2023/12/12 04:22:13;;;;;;;4.40;2.43;;;;;6.80;100181.00;;;;5036430;28;20235;-73
2023/12/12 04:25:00;;;;;;;4.20;2.37;;;;;6.80;100174.00;;;;5036898;28;20298;-72
2023/12/12 04:27:47;;;;;;;3.60;2.67;;;;;6.70;100172.00;;;;5037996;28;20230;-72
2023/12/12 04:30:33;;;;;;;4.90;2.60;;;;;6.70;100169.00;;;;5038004;28;20233;-73
2023/12/12 04:33:20;;;;;;;5.10;2.40;;;;;6.60;100159.00;;;;5043521;28;20229;-73
2023/12/12 04:36:08;;;;;;;3.23;2.17;;;;;6.50;100166.00;;;;5043358;28;20299;-73
2023/12/12 04:38:55;;;;;;;5.40;2.70;;;;;6.50;100160.00;;;;5041587;28;20228;-72
2023/12/12 04:41:41;;;;;;;5.33;2.77;;;;;6.50;100163.00;;;;5043595;28;20281;-71
2023/12/12 04:44:27;;;;;;;5.80;2.53;;;;;6.60;100163.00;;;;5037139;28;20228;-71
2023/12/12 04:47:14;;;;;;;4.00;3.23;;;;;6.50;100160.00;;;;5036417;28;20227;-71
2023/12/12 04:50:00;;;;;;;3.43;2.70;;;;;6.40;100155.00;;;;5036356;28;20230;-72
2023/12/12 04:52:49;;;;;;;4.30;2.07;;;;;6.40;100154.00;;;;5035489;28;20233;-72
2023/12/12 04:55:35;;;;;;;2.77;2.40;;;;;6.40;100151.00;;;;5044527;28;20233;-72
2023/12/12 04:58:22;;;;;;;5.07;2.20;;;;;6.40;100147.00;;;;5046627;28;20360;-71
2023/12/12 05:01:08;;;;;;;4.40;2.53;;;;;6.40;100153.00;;;;5044865;28;20264;-73
2023/12/12 05:03:54;;;;;;;4.63;2.33;;;;;6.30;100148.00;;;;5043014;28;20233;-71
2023/12/12 05:06:41;;;;;;;4.23;2.50;;;;;6.30;100147.00;;;;5047246;28;20832;-71
2023/12/12 05:09:29;;;;;;;5.30;2.40;;;;;6.40;100152.00;;;;5042708;28;20307;-74
2023/12/12 05:12:15;;;;;;;5.40;2.90;;;;;6.30;100156.00;;;;5043617;28;20220;-71
2023/12/12 05:15:01;;;;;;;3.97;2.20;;;;;6.30;100153.00;;;;5043378;28;20240;-72
2023/12/12 05:17:48;;;;;;;9.33;3.07;;;;;6.30;100150.00;;;;5037987;28;20856;-73
2023/12/12 05:20:35;;;;;;;3.43;2.50;;;;;6.30;100147.00;;;;5041242;28;20345;-72
2023/12/12 05:23:22;;;;;;;6.97;2.60;;;;;6.40;100150.00;;;;5040324;28;20232;-71
2023/12/12 05:26:09;;;;;;;8.60;3.57;;;;;6.40;100146.00;;;;5047319;28;21031;-74
2023/12/12 05:28:56;;;;;;;10.50;4.00;;;;;6.50;100142.00;;;;5044558;28;20229;-71
2023/12/12 05:31:42;;;;;;;9.50;2.87;;;;;6.40;100138.00;;;;5047386;28;20931;-71
2023/12/12 05:34:28;;;;;;;5.40;3.47;;;;;6.40;100135.00;;;;5042323;28;20776;-72
2023/12/12 05:37:15;;;;;;;10.30;3.90;;;;;6.40;100141.00;;;;5043390;28;20233;-72
2023/12/12 05:40:02;;;;;;;5.40;3.70;;;;;6.50;100134.00;;;;5046123;28;20351;-71
2023/12/12 05:42:49;;;;;;;5.00;2.77;;;;;6.50;100133.00;;;;5049462;28;20278;-71
2023/12/12 05:45:35;;;;;;;4.80;3.07;;;;;6.50;100123.00;;;;5038569;28;20228;-74
2023/12/12 05:48:22;;;;;;;5.37;3.63;;;;;6.50;100116.00;;;;5047130;28;20233;-71
2023/12/12 05:51:08;;;;;;;10.83;4.20;;;;;6.50;100126.00;;;;5046211;28;20843;-69
2023/12/12 05:53:54;;;;;;;6.87;3.77;;;;;6.40;100126.00;;;;5046408;28;20233;-71
2023/12/12 05:56:43;;;;;;;6.33;3.07;;;;;6.40;100120.00;;;;5041017;28;20237;-73
2023/12/12 05:59:31;;;;;;;10.87;4.10;;;;;6.50;100109.00;;;;5046772;28;20605;-70
2023/12/12 06:02:17;;;;;;;7.47;3.60;;;;;6.50;100125.00;;;;5046102;28;20746;-69
2023/12/12 06:05:07;;;;;;;9.10;3.53;;;;;6.50;100120.00;;;;5046319;28;20228;-72
2023/12/12 06:07:54;;;;;;;8.00;4.33;;;;;6.40;100132.00;;;;5046460;28;20240;-72
2023/12/12 06:10:40;;;;;;;7.67;4.10;;;;;6.50;100131.00;;;;5044138;28;20238;-73
2023/12/12 06:13:27;;;;;;;5.37;3.37;;;;;6.50;100131.00;;;;5046288;28;20326;-70
2023/12/12 06:16:14;;;;;;;9.03;3.63;;;;;6.50;100125.00;;;;5045041;28;20334;-72
2023/12/12 06:19:04;;;;;;;4.97;3.30;;;;;6.70;100121.00;;;;5044727;28;20232;-72
2023/12/12 06:21:53;;;;;;;10.27;3.57;;;;;6.60;100129.00;;;;5045695;28;20228;-71
2023/12/12 06:24:40;;;;;;;4.47;3.70;;;;;6.50;100120.00;;;;5040738;28;20360;-71
2023/12/12 06:27:26;;;;;;;5.30;3.13;;;;;6.50;100116.00;;;;5038811;28;20233;-69
2023/12/12 06:30:13;;;;;;;6.33;3.70;;;;;6.40;100125.00;;;;5044101;28;20236;-71
2023/12/12 06:33:00;;;;;;;3.87;3.10;;;;;6.40;100128.00;;;;5040752;28;20253;-72
2023/12/12 06:35:47;;;;;;;6.53;3.43;;;;;6.40;100112.00;;;;5035515;28;20891;-72
2023/12/12 06:38:33;;;;;;;4.70;3.30;;;;;6.50;100116.00;;;;5042215;28;20236;-71
2023/12/12 06:41:20;;;;;;;7.10;4.10;;;;;6.50;100118.00;;;;5042176;28;20252;-73
2023/12/12 06:44:07;;;;;;;8.67;3.60;;;;;6.50;100114.00;;;;5044186;28;20225;-72
2023/12/12 06:46:53;;;;;;;10.47;3.77;;;;;6.60;100109.00;;;;5042691;28;20315;-73
2023/12/12 06:49:41;;;;;;;9.60;4.63;;;;;6.60;100110.00;;;;5043010;28;20271;-72
2023/12/12 06:52:31;;;;;;;10.10;4.27;;;;;6.60;100099.00;;;;5044201;28;20248;-73
2023/12/12 06:55:17;;;;;;;9.10;4.47;;;;;6.70;100113.00;;;;5043906;28;20228;-74
2023/12/12 06:58:04;;;;;;;7.60;4.17;;;;;6.60;100107.00;;;;5044887;28;20232;-72
2023/12/12 07:00:52;;;;;;;6.20;3.90;;;;;6.70;100113.00;;;;5044985;28;20256;-73
2023/12/12 07:03:39;;;;;;;5.37;3.27;;;;;6.70;100112.00;;;;5047739;28;20369;-72
2023/12/12 07:06:28;;;;;;;8.03;4.33;;;;;6.70;100113.00;;;;5033890;28;20241;-72
2023/12/12 07:09:14;;;;;;;8.17;4.47;;;;;6.80;100104.00;;;;5038654;28;20228;-72
2023/12/12 07:12:01;;;;;;;6.73;4.67;;;;;6.80;100107.00;;;;5047867;28;20232;-71
2023/12/12 07:14:47;;;;;;;10.87;4.70;;;;;6.80;100110.00;;;;5036921;28;20224;-73
2023/12/12 07:17:33;;;;;;;7.93;4.50;;;;;6.90;100104.00;;;;5037823;28;20248;-72
2023/12/12 07:20:21;;;;;;;7.60;4.03;;;;;6.80;100101.00;;;;5043718;28;20834;-71
2023/12/12 07:23:09;;;;;;;6.63;4.37;;;;;6.90;100098.00;;;;5040849;28;20270;-71
2023/12/12 07:25:55;;;;;;;8.53;4.07;;;;;6.80;100096.00;;;;5039584;28;20244;-72
2023/12/12 07:28:42;;;;;;;4.60;3.43;;;;;6.80;100100.00;;;;5041845;28;20234;-71
2023/12/12 07:31:28;;;;;;;5.83;4.30;;;;;6.70;100093.00;;;;5041943;28;20229;-71
2023/12/12 07:34:15;;;;;;;10.60;4.17;;;;;6.80;100101.00;;;;5035908;28;20730;-74
2023/12/12 07:37:01;;;;;;;10.80;4.23;;;;;6.70;100098.00;;;;5037896;28;20254;-73
2023/12/12 07:39:49;;;;;;;8.50;4.67;;;;;6.80;100094.00;;;;5041814;28;20403;-73
2023/12/12 07:42:36;;;;;;;16.27;4.23;;;;;6.80;100089.00;;;;5040891;28;20231;-71
2023/12/12 07:45:22;;;;;;;7.13;3.50;;;;;6.80;100089.00;;;;5043382;28;20297;-72
2023/12/12 07:48:08;;;;;;;7.53;3.93;;;;;6.80;100088.00;;;;5041726;28;20232;-73
2023/12/12 07:50:55;;;;;;;9.27;3.83;;;;;6.80;100093.00;;;;5043058;28;20232;-72
2023/12/12 07:53:41;;;;;;;8.27;3.53;;;;;6.80;100100.00;;;;5041591;28;20725;-72
2023/12/12 07:56:30;;;;;;;9.73;3.60;;;;;6.90;100089.00;;;;5042569;28;20574;-74
2023/12/12 07:59:17;;;;;;;5.93;3.40;;;;;6.90;100075.00;;;;5024267;28;20933;-74
2023/12/12 08:02:03;;;;;;;9.80;4.77;;;;;6.90;100086.00;;;;5030337;28;20309;-75
2023/12/12 08:04:50;;;;;;;13.27;3.60;;;;;7.00;100077.00;;;;5027918;28;20299;-75
2023/12/12 08:07:36;;;;;;;9.77;3.83;;;;;7.10;100075.00;;;;5042011;28;20772;-75
2023/12/12 08:10:23;;;;;;;10.03;4.70;;;;;7.10;100070.00;;;;5041486;28;20611;-73
2023/12/12 08:13:11;;;;;;;15.30;4.07;;;;;7.20;100069.00;;;;5039824;28;20327;-75
2023/12/12 08:15:58;;;;;;;6.90;3.47;;;;;7.20;100081.00;;;;5037416;28;20275;-73
2023/12/12 08:18:45;;;;;;;11.70;3.73;;;;;7.20;100073.00;;;;5035006;28;20226;-75
2023/12/12 08:21:31;;;;;;;8.20;4.17;;;;;7.30;100060.00;;;;5043603;28;20232;-71
2023/12/12 08:24:17;;;;;;;10.57;4.40;;;;;7.30;100059.00;;;;5041575;28;20278;-75
2023/12/12 08:27:06;;;;;;;5.57;3.97;;;;;7.30;100049.00;;;;5040106;28;20237;-74
2023/12/12 08:29:56;;;;;;;15.40;4.97;;;;;7.30;100056.00;;;;5038838;28;20233;-72
2023/12/12 08:32:43;;;;;;;15.80;5.80;;;;;7.40;100058.00;;;;5046477;28;20296;-72
2023/12/12 08:35:30;;;;;;;11.50;6.27;;;;;7.50;100048.00;;;;5042165;28;20279;-74
2023/12/12 08:38:16;;;;;;;10.87;6.23;;;;;7.60;100046.00;;;;5040423;28;20247;-74
2023/12/12 08:41:03;;;;;;;15.87;7.80;;;;;7.60;100042.00;;;;5042381;28;20237;-74
2023/12/12 08:43:56;;;;;;;16.13;6.50;;;;;7.70;100042.00;;;;5037992;28;20331;-70
2023/12/12 08:46:44;;;;;;;13.63;6.60;;;;;7.80;100049.00;;;;5043744;28;20230;-73
2023/12/12 08:49:33;;;;;;;9.50;5.30;;;;;7.80;100042.00;;;;5042757;28;20360;-73
2023/12/12 08:52:20;;;;;;;12.93;4.87;;;;;7.90;100043.00;;;;5043199;28;20283;-73
2023/12/12 08:55:10;;;;;;;13.50;6.00;;;;;8.00;100041.00;;;;5038142;28;20234;-74
2023/12/12 08:57:56;;;;;;;13.23;6.17;;;;;8.00;100037.00;;;;5042421;28;20237;-74
2023/12/12 09:00:43;;;;;;;9.40;5.20;;;;;8.10;100025.00;;;;5041389;28;20229;-73
2023/12/12 09:03:31;;;;;;;12.47;4.97;;;;;8.10;100032.00;;;;5046995;28;20269;-74
2023/12/12 09:06:17;;;;;;;9.97;5.50;;;;;8.20;100026.00;;;;5046632;28;20705;-74
2023/12/12 09:09:04;;;;;;;10.10;6.33;;;;;8.20;100020.00;;;;5035805;28;20232;-73
2023/12/12 09:11:52;;;;;;;12.70;6.03;;;;;8.30;100028.00;;;;5046068;28;20345;-73
2023/12/12 09:14:39;;;;;;;15.03;6.57;;;;;8.30;100017.00;;;;5037028;28;20277;-72
2023/12/12 09:17:25;;;;;;;28.00;8.17;;;;;8.40;100012.00;;;;5046164;28;20303;-73
2023/12/12 09:20:13;;;;;;;27.97;7.80;;;;;8.50;100006.00;;;;5041448;28;20740;-74
2023/12/12 09:23:00;;;;;;;19.87;7.27;;;;;8.50;100013.00;;;;5038530;28;20234;-72
2023/12/12 09:25:46;;;;;;;18.27;6.63;;;;;8.60;100011.00;;;;5043049;28;20230;-72
2023/12/12 09:28:32;;;;;;;19.33;7.17;;;;;8.60;100007.00;;;;5042037;28;20238;-73
2023/12/12 09:31:26;;;;;;;16.07;6.10;;;;;8.70;100000.00;;;;5045667;28;20701;-73
2023/12/12 09:34:12;;;;;;;22.37;7.70;;;;;8.70;100009.00;;;;5038696;28;20252;-73
2023/12/12 09:37:00;;;;;;;19.73;7.00;;;;;8.80;100002.00;;;;5045250;28;20703;-72
2023/12/12 09:39:46;;;;;;;14.63;7.53;;;;;8.90;100002.00;;;;5042552;28;20349;-73
2023/12/12 09:42:34;;;;;;;12.73;6.93;;;;;9.00;99995.00;;;;5044968;28;20374;-73
2023/12/12 09:45:23;;;;;;;18.43;7.30;;;;;9.00;99989.00;;;;5050976;28;20225;-73
2023/12/12 09:48:10;;;;;;;14.63;7.13;;;;;9.10;99986.00;;;;5042642;28;20239;-73
2023/12/12 09:50:57;;;;;;;13.23;6.50;;;;;9.20;99980.00;;;;5037603;28;20294;-74
2023/12/12 09:53:47;;;;;;;13.70;7.20;;;;;9.20;99980.00;;;;5040928;28;20767;-73
2023/12/12 09:56:35;;;;;;;15.93;7.73;;;;;9.20;99969.00;;;;5042007;28;20283;-72
2023/12/12 09:59:21;;;;;;;19.97;8.10;;;;;9.30;99963.00;;;;5042441;28;20348;-75
2023/12/12 10:02:09;;;;;;;21.40;7.43;;;;;9.40;99954.00;;;;5043059;28;20294;-74
2023/12/12 10:05:09;;;;;;;13.43;6.90;;;;;9.50;99943.00;;;;5037886;28;20245;-73
2023/12/12 10:07:56;;;;;;;11.53;6.20;;;;;9.50;99941.00;;;;5034067;28;20278;-74
2023/12/12 10:10:55;;;;;;;13.73;5.90;;;;;9.60;99932.00;;;;5045612;28;20283;-73
2023/12/12 10:13:50;;;;;;;20.13;6.97;;;;;9.70;99921.00;;;;5038668;28;20359;-73
2023/12/12 10:16:36;;;;;;;10.50;5.63;;;;;9.70;99919.00;;;;5045453;28;20231;-74
2023/12/12 10:19:23;;;;;;;12.80;5.30;;;;;9.80;99921.00;;;;5049883;28;20240;-72
2023/12/12 10:22:10;;;;;;;9.63;5.20;;;;;9.80;99912.00;;;;5038887;28;20271;-72
2023/12/12 10:25:10;;;;;;;12.57;5.10;;;;;9.80;99913.00;;;;5046500;28;20724;-73
2023/12/12 10:27:59;;;;;;;15.37;4.67;;;;;9.90;99897.00;;;;5029636;28;20224;-74
2023/12/12 10:30:45;;;;;;;17.60;4.97;;;;;10.00;99908.00;;;;5040631;28;20257;-74
2023/12/12 10:33:32;;;;;;;21.23;6.73;;;;;10.00;99902.00;;;;5040403;28;20291;-72
2023/12/12 10:36:18;;;;;;;13.83;4.23;;;;;10.10;99909.00;;;;5047054;28;20243;-72
2023/12/12 10:39:12;;;;;;;8.00;4.20;;;;;10.20;99893.00;;;;5045884;28;20356;-73
2023/12/12 10:41:59;;;;;;;12.37;4.57;;;;;10.30;99888.00;;;;5036220;28;20613;-74
2023/12/12 10:44:48;;;;;;;11.30;4.70;;;;;10.40;99885.00;;;;5049631;28;20836;-73
2023/12/12 10:47:35;;;;;;;8.37;3.47;;;;;10.40;99873.00;;;;5038484;28;20221;-71
2023/12/12 10:50:23;;;;;;;11.70;5.07;;;;;10.50;99865.00;;;;5050629;28;20276;-73
2023/12/12 10:53:10;;;;;;;13.40;4.20;;;;;10.60;99870.00;;;;5040435;28;20295;-72
2023/12/12 10:55:58;;;;;;;16.77;4.57;;;;;10.60;99857.00;;;;5034584;28;20220;-72
2023/12/12 10:58:45;;;;;;;14.17;4.00;;;;;10.70;99853.00;;;;5039180;28;20242;-71
2023/12/12 11:01:34;;;;;;;10.63;4.10;;;;;10.80;99852.00;;;;5036521;28;20233;-72
2023/12/12 11:04:21;;;;;;;8.77;3.13;;;;;11.00;99846.00;;;;5045374;28;20617;-72
2023/12/12 11:07:08;;;;;;;13.37;3.77;;;;;11.10;99837.00;;;;5039338;28;20221;-71
2023/12/12 11:09:54;;;;;;;6.97;3.03;;;;;11.30;99836.00;;;;5037663;28;20256;-73
2023/12/12 11:12:44;;;;;;;6.87;2.50;;;;;11.40;99827.00;;;;5051694;28;20224;-72
2023/12/12 11:15:31;;;;;;;9.87;3.17;;;;;11.40;99823.00;;;;5044391;28;20275;-72
2023/12/12 11:18:20;;;;;;;8.87;2.63;;;;;11.50;99817.00;;;;5044848;28;20372;-71
2023/12/12 11:21:07;;;;;;;9.23;2.63;;;;;11.50;99812.00;;;;5037869;28;20276;-72
2023/12/12 11:23:54;;;;;;;8.57;3.03;;;;;11.60;99805.00;;;;5043550;28;20239;-72
2023/12/12 11:26:42;;;;;;;7.03;2.37;;;;;11.60;99795.00;;;;5044464;28;20236;-71
2023/12/12 11:29:29;;;;;;;6.27;2.50;;;;;11.70;99786.00;;;;5041812;28;20784;-73
2023/12/12 11:32:23;;;;;;;4.67;1.97;;;;;11.80;99782.00;;;;5044816;28;20233;-72
2023/12/12 11:35:28;;;;;;;7.40;2.50;;;;;11.90;99784.00;;;;5042677;28;20226;-71
2023/12/12 11:38:29;;;;;;;5.97;2.27;;;;;11.80;99781.00;;;;5042999;28;20237;-72
2023/12/12 11:41:17;;;;;;;4.70;2.30;;;;;11.70;99783.00;;;;5041681;28;20294;-73
2023/12/12 11:44:05;;;;;;;7.37;2.60;;;;;11.70;99784.00;;;;5038548;28;20237;-73
2023/12/12 11:46:53;;;;;;;8.27;2.10;;;;;11.70;99776.00;;;;5044302;28;20232;-72
2023/12/12 11:49:40;;;;;;;6.93;2.20;;;;;11.80;99774.00;;;;5042225;28;20346;-71
2023/12/12 11:52:49;;;;;;;5.93;2.03;;;;;11.80;99758.00;;;;5040972;28;20229;-72
2023/12/12 11:55:42;;;;;;;6.87;2.57;;;;;11.90;99755.00;;;;5042190;28;20332;-72
2023/12/12 11:58:32;;;;;;;11.00;2.30;;;;;11.90;99748.00;;;;5029072;28;20361;-73
2023/12/12 12:01:21;;;;;;;4.97;2.93;;;;;12.10;99748.00;;;;5034967;28;20289;-72
2023/12/12 12:04:08;;;;;;;5.93;2.50;;;;;12.10;99741.00;;;;5039009;28;20291;-73
2023/12/12 12:06:54;;;;;;;10.60;2.87;;;;;12.20;99734.00;;;;5043938;28;20366;-72
2023/12/12 12:09:42;;;;;;;5.27;2.30;;;;;12.40;99726.00;;;;5048524;28;20282;-72
2023/12/12 12:12:29;;;;;;;9.30;2.20;;;;;12.60;99717.00;;;;5039689;28;20365;-70
2023/12/12 12:15:15;;;;;;;8.53;1.90;;;;;12.70;99716.00;;;;5038786;28;20232;-72
2023/12/12 12:18:02;;;;;;;4.70;1.70;;;;;12.80;99714.00;;;;5044344;28;20225;-70
2023/12/12 12:20:49;;;;;;;4.07;2.10;;;;;12.80;99711.00;;;;5040102;28;20242;-72
2023/12/12 12:23:37;;;;;;;8.27;2.17;;;;;12.90;99717.00;;;;5043360;28;20747;-72
2023/12/12 12:26:25;;;;;;;7.13;1.83;;;;;12.80;99701.00;;;;5045310;28;20778;-72
2023/12/12 12:29:12;;;;;;;4.83;1.60;;;;;12.70;99702.00;;;;5041931;28;20664;-71
2023/12/12 12:32:10;;;;;;;2.87;1.50;;;;;12.50;99685.00;;;;5041326;28;20537;-73
2023/12/12 12:35:07;;;;;;;6.17;1.60;;;;;12.50;99689.00;;;;5044826;28;20229;-72
2023/12/12 12:37:54;;;;;;;6.77;1.97;;;;;12.60;99681.00;;;;5031195;28;20789;-72
2023/12/12 12:40:40;;;;;;;1.97;1.30;;;;;12.60;99674.00;;;;5045270;28;20234;-73
2023/12/12 12:43:28;;;;;;;3.43;1.43;;;;;12.60;99669.00;;;;5042744;28;20265;-72
2023/12/12 12:46:15;;;;;;;3.30;1.50;;;;;12.50;99671.00;;;;5047117;28;20291;-72
2023/12/12 12:49:01;;;;;;;2.90;1.67;;;;;12.30;99649.00;;;;5040015;28;20825;-71
2023/12/12 12:51:48;;;;;;;5.97;1.33;;;;;12.30;99653.00;;;;5047851;28;20232;-72
2023/12/12 12:54:35;;;;;;;5.43;1.37;;;;;12.20;99643.00;;;;5043828;28;20264;-72
2023/12/12 12:57:21;;;;;;;5.50;1.47;;;;;12.20;99645.00;;;;5041067;28;20236;-72
2023/12/12 13:00:12;;;;;;;3.87;1.63;;;;;12.00;99648.00;;;;5042926;28;20256;-73
2023/12/12 13:02:59;;;;;;;3.10;1.33;;;;;12.00;99647.00;;;;5034880;28;20595;-73
2023/12/12 13:05:45;;;;;;;4.43;1.23;;;;;11.80;99645.00;;;;5046250;28;20256;-70
2023/12/12 13:08:31;;;;;;;4.43;1.80;;;;;11.80;99636.00;;;;5041397;28;20241;-71
2023/12/12 13:11:18;;;;;;;2.10;1.20;;;;;11.90;99640.00;;;;5043078;28;20236;-69
2023/12/12 13:14:05;;;;;;;2.40;1.27;;;;;11.90;99635.00;;;;5046507;28;20762;-72
2023/12/12 13:16:53;;;;;;;2.03;1.20;;;;;11.90;99641.00;;;;5040744;28;20248;-72
2023/12/12 13:19:39;;;;;;;1.90;1.37;;;;;11.90;99634.00;;;;5039958;28;20249;-70
2023/12/12 13:22:26;;;;;;;2.10;1.20;;;;;11.80;99642.00;;;;5046554;28;20240;-73
2023/12/12 13:25:14;;;;;;;5.33;1.77;;;;;11.70;99638.00;;;;5048511;28;20660;-73
2023/12/12 13:28:00;;;;;;;4.67;1.43;;;;;11.70;99643.00;;;;5043138;28;20319;-72
2023/12/12 13:30:46;;;;;;;2.10;1.10;;;;;11.60;99649.00;;;;5042673;28;20255;-72
2023/12/12 13:33:34;;;;;;;3.77;1.50;;;;;11.60;99636.00;;;;5043192;28;20355;-70
2023/12/12 13:36:21;;;;;;;2.70;1.00;;;;;11.50;99633.00;;;;5041012;28;20233;-71
2023/12/12 13:39:12;;;;;;;6.47;1.53;;;;;11.50;99630.00;;;;5044289;28;20224;-71
2023/12/12 13:42:04;;;;;;;3.57;1.30;;;;;11.40;99629.00;;;;5038807;28;20686;-71
2023/12/12 13:44:51;;;;;;;1.30;1.20;;;;;11.40;99629.00;;;;5039688;28;20227;-73
2023/12/12 13:47:37;;;;;;;1.43;1.20;;;;;11.40;99627.00;;;;5044390;28;20225;-73
2023/12/12 13:50:24;;;;;;;2.63;1.70;;;;;11.40;99625.00;;;;5041655;28;20303;-73
2023/12/12 13:53:11;;;;;;;5.43;1.30;;;;;11.30;99629.00;;;;5040335;28;20665;-72
2023/12/12 13:55:57;;;;;;;5.97;1.80;;;;;11.30;99616.00;;;;5046370;28;20231;-69